リヤド の空港の天気 - METARとTAF

キング・ハーリド国際空港(リヤド) ( OERK / RUH ) - サウジアラビア リヤド
飛行場実況気象(Metar)
観測時間11/30 13:00 AST (11/30 10:00 UTC)
風向・風速北 3m/s
視程8000m
天気現象
全天の4割程度の雲 雲底高度 1220m
全天の8割程度の雲 雲底高度 2440m
気温17℃
湿度77%
気圧1020hPa
METAROERK 301000Z 01005KT 8000 SCT040 BKN080 17/13 Q1020 RERA NOSIG
過去の天気等 Google飛行場航空写真 Wunderground天気予報

過去48時間のMETAR

飛行場予報(TAF)
発表時間: 11/30 08:00 AST (11/30 05:00 UTC)
予報対象時間: 30日9時 AST ~ 1日15時 AST
風向・風速北北東 5m/s
視程7000m
全天の4割程度の雲 雲底高度 1220m
30日9時 AST ~ 30日19時 AST に一時的に
天気現象雷雨
少しの積乱雲 雲底高度 1070m
全天の8割程度の雲 雲底高度 1220m
1日1時 AST ~ 1日1時 AST に徐々に
風向・風速不定 2m/s
TAF OERK 300500Z 3006/0112 03010KT 7000 SCT040
TEMPO 3006/3016 TSRA FEW035CB BKN040
BECMG 3022/3022 VRB03KT